createdAt,value
2023-05-08T00:01:15.918Z,98692.63
2023-05-08T00:03:48.094Z,98690.28
2023-05-08T00:06:21.274Z,98695.47
2023-05-08T00:08:54.543Z,98689.41
2023-05-08T00:11:27.051Z,98693.81
2023-05-08T00:13:59.032Z,98696.78
2023-05-08T00:16:32.506Z,98694.06
2023-05-08T00:19:04.521Z,98687.44
2023-05-08T00:21:37.057Z,98685.84
2023-05-08T00:24:08.919Z,98685.00
2023-05-08T00:26:42.258Z,98692.34
2023-05-08T00:29:14.138Z,98693.28
2023-05-08T00:31:47.082Z,98690.03
2023-05-08T00:34:19.326Z,98696.75
2023-05-08T00:36:51.236Z,98696.88
2023-05-08T00:39:23.869Z,98700.44
2023-05-08T00:41:55.854Z,98704.91
2023-05-08T00:44:28.702Z,98693.75
2023-05-08T00:47:00.730Z,98696.13
2023-05-08T00:49:34.900Z,98691.00
2023-05-08T00:52:08.694Z,98698.81
2023-05-08T00:54:41.619Z,98701.66
2023-05-08T00:57:15.622Z,98700.13
2023-05-08T00:59:49.742Z,98704.97
2023-05-08T01:02:21.892Z,98709.78
2023-05-08T01:04:56.763Z,98706.41
2023-05-08T01:07:28.810Z,98709.75
2023-05-08T01:10:01.431Z,98716.88
2023-05-08T01:12:51.210Z,98719.88
2023-05-08T01:15:43.259Z,98718.09
2023-05-08T01:18:28.355Z,98707.50
2023-05-08T01:21:12.472Z,98713.59
2023-05-08T01:24:18.190Z,98709.28
2023-05-08T01:27:39.681Z,98708.63
2023-05-08T01:30:57.740Z,98708.22
2023-05-08T01:33:56.852Z,98712.38
2023-05-08T01:36:41.416Z,98718.78
2023-05-08T01:39:24.574Z,98712.72
2023-05-08T01:42:51.330Z,98721.41
2023-05-08T01:45:32.796Z,98716.59
2023-05-08T01:48:18.156Z,98714.03
2023-05-08T01:50:58.325Z,98721.66
2023-05-08T01:53:35.104Z,98713.59
2023-05-08T01:56:17.857Z,98719.06
2023-05-08T01:58:56.836Z,98717.13
2023-05-08T02:01:32.589Z,98721.94
2023-05-08T02:04:07.527Z,98717.41
2023-05-08T02:06:40.685Z,98715.16
2023-05-08T02:09:13.486Z,98718.91
2023-05-08T02:11:47.248Z,98716.03
2023-05-08T02:14:25.580Z,98720.00
2023-05-08T02:16:59.806Z,98716.69
2023-05-08T02:19:32.656Z,98720.25
2023-05-08T02:22:09.066Z,98710.25
2023-05-08T02:24:43.013Z,98706.38
2023-05-08T02:27:15.619Z,98715.72
2023-05-08T02:29:50.491Z,98715.84
2023-05-08T02:32:26.307Z,98719.00
2023-05-08T02:35:03.662Z,98717.63
2023-05-08T02:37:38.968Z,98729.63
2023-05-08T02:40:13.344Z,98722.00
2023-05-08T02:42:47.445Z,98726.38
2023-05-08T02:45:20.541Z,98730.19
2023-05-08T02:48:01.314Z,98723.44
2023-05-08T02:50:40.844Z,98723.50
2023-05-08T02:53:24.024Z,98720.66
2023-05-08T02:56:09.925Z,98717.16
2023-05-08T02:58:55.460Z,98717.84
2023-05-08T03:01:34.215Z,98714.81
2023-05-08T03:04:09.539Z,98717.59
2023-05-08T03:06:48.470Z,98719.84
2023-05-08T03:09:26.610Z,98724.31
2023-05-08T03:12:04.904Z,98726.25
2023-05-08T03:14:44.932Z,98722.59
2023-05-08T03:17:19.361Z,98718.47
2023-05-08T03:19:58.331Z,98712.66
2023-05-08T03:22:32.758Z,98708.78
2023-05-08T03:25:09.602Z,98711.47
2023-05-08T03:27:45.870Z,98713.75
2023-05-08T03:30:18.546Z,98710.38
2023-05-08T03:33:00.463Z,98708.38
2023-05-08T03:35:35.423Z,98716.97
2023-05-08T03:38:09.531Z,98714.91
2023-05-08T03:40:44.595Z,98706.91
2023-05-08T03:43:18.064Z,98704.06
2023-05-08T03:45:51.745Z,98715.69
2023-05-08T03:48:25.203Z,98726.94
2023-05-08T03:51:01.203Z,98727.44
2023-05-08T03:56:30.269Z,98722.28
2023-05-08T03:59:18.192Z,98721.28
2023-05-08T04:02:00.512Z,98725.03
2023-05-08T04:04:44.805Z,98717.88
2023-05-08T04:07:33.028Z,98735.78
2023-05-08T04:10:38.620Z,98729.59
2023-05-08T04:13:20.329Z,98721.41
2023-05-08T04:16:02.115Z,98724.31
2023-05-08T04:19:03.336Z,98724.69
2023-05-08T04:21:39.768Z,98733.47
2023-05-08T04:24:18.714Z,98743.31
2023-05-08T04:26:52.058Z,98731.78
2023-05-08T04:29:25.722Z,98744.78
2023-05-08T04:31:59.847Z,98731.81
2023-05-08T04:34:33.096Z,98740.44
2023-05-08T04:37:07.940Z,98743.16
2023-05-08T04:39:43.133Z,98751.75
2023-05-08T04:42:16.104Z,98753.78
2023-05-08T04:44:48.911Z,98751.06
2023-05-08T04:47:21.522Z,98749.03
2023-05-08T04:49:54.386Z,98753.09
2023-05-08T04:52:27.377Z,98751.28
2023-05-08T04:54:59.245Z,98753.88
2023-05-08T04:57:32.823Z,98755.94
2023-05-08T05:00:07.355Z,98757.69
2023-05-08T05:02:43.610Z,98755.59
2023-05-08T05:05:17.153Z,98764.97
2023-05-08T05:07:49.196Z,98765.75
2023-05-08T05:10:25.305Z,98762.97
2023-05-08T05:12:57.357Z,98766.28
2023-05-08T05:15:30.702Z,98763.75
2023-05-08T05:18:04.176Z,98772.38
2023-05-08T05:20:36.127Z,98769.72
2023-05-08T05:23:09.536Z,98776.34
2023-05-08T05:25:41.555Z,98769.81
2023-05-08T05:28:17.792Z,98768.34
2023-05-08T05:30:49.870Z,98772.97
2023-05-08T05:33:23.083Z,98773.69
2023-05-08T05:35:55.978Z,98780.34
2023-05-08T05:38:29.987Z,98788.91
2023-05-08T05:41:03.341Z,98782.81
2023-05-08T05:43:36.519Z,98790.94
2023-05-08T05:46:10.084Z,98792.28
2023-05-08T05:48:45.253Z,98792.94
2023-05-08T05:51:18.730Z,98798.88
2023-05-08T05:53:51.812Z,98798.78
2023-05-08T05:56:24.432Z,98798.31
2023-05-08T05:58:57.490Z,98797.56
2023-05-08T06:01:31.591Z,98795.44
2023-05-08T06:04:04.989Z,98795.44
2023-05-08T06:06:38.504Z,98790.75
2023-05-08T06:09:10.922Z,98796.06
2023-05-08T06:11:42.887Z,98801.94
2023-05-08T06:14:15.520Z,98793.66
2023-05-08T06:16:47.820Z,98804.22
2023-05-08T06:19:21.911Z,98797.75
2023-05-08T06:21:53.776Z,98799.78
2023-05-08T06:24:28.443Z,98806.34
2023-05-08T06:27:00.323Z,98806.41
2023-05-08T06:29:34.604Z,98802.38
2023-05-08T06:32:06.765Z,98800.25
2023-05-08T06:34:41.588Z,98802.41
2023-05-08T06:37:13.481Z,98804.50
2023-05-08T06:39:50.543Z,98789.47
2023-05-08T06:42:27.310Z,98789.75
2023-05-08T06:45:01.649Z,98792.94
2023-05-08T06:47:34.053Z,98800.31
2023-05-08T06:50:07.633Z,98787.69
2023-05-08T06:52:40.594Z,98792.41
2023-05-08T06:55:15.184Z,98798.25
2023-05-08T06:57:49.903Z,98787.81
2023-05-08T07:00:24.294Z,98785.13
2023-05-08T07:02:56.746Z,98787.25
2023-05-08T07:05:31.435Z,98788.56
2023-05-08T07:08:04.200Z,98778.78
2023-05-08T07:10:36.960Z,98786.66
2023-05-08T07:13:10.275Z,98789.41
2023-05-08T07:15:42.296Z,98792.53
2023-05-08T07:18:15.627Z,98796.16
2023-05-08T07:20:48.489Z,98801.09
2023-05-08T07:23:22.098Z,98793.81
2023-05-08T07:25:54.598Z,98811.03
2023-05-08T07:28:27.448Z,98810.69
2023-05-08T07:31:00.460Z,98811.50
2023-05-08T07:36:26.977Z,98810.69
2023-05-08T07:39:00.187Z,98811.31
2023-05-08T07:41:32.804Z,98816.09
2023-05-08T07:44:05.773Z,98818.56
2023-05-08T07:46:38.050Z,98820.50
2023-05-08T07:49:12.646Z,98817.72
2023-05-08T07:51:45.579Z,98823.06
2023-05-08T07:54:18.158Z,98816.75
2023-05-08T07:56:50.146Z,98823.72
2023-05-08T07:59:23.626Z,98821.91
2023-05-08T08:01:55.537Z,98815.47
2023-05-08T08:04:29.261Z,98818.13
2023-05-08T08:07:04.288Z,98810.53
2023-05-08T08:09:37.504Z,98822.44
2023-05-08T08:12:10.423Z,98821.03
2023-05-08T08:14:42.982Z,98820.59
2023-05-08T08:17:17.051Z,98814.69
2023-05-08T08:19:49.060Z,98820.22
2023-05-08T08:22:23.485Z,98822.88
2023-05-08T08:24:56.371Z,98821.63
2023-05-08T08:27:29.603Z,98831.97
2023-05-08T08:30:12.832Z,98822.53
2023-05-08T08:32:51.320Z,98822.97
2023-05-08T08:35:29.290Z,98825.84
2023-05-08T08:38:02.378Z,98825.44
2023-05-08T08:40:42.807Z,98817.69
2023-05-08T08:43:15.918Z,98816.44
2023-05-08T08:45:49.233Z,98810.94
2023-05-08T08:48:26.053Z,98812.56
2023-05-08T08:51:05.727Z,98813.09
2023-05-08T08:53:44.737Z,98819.25
2023-05-08T08:56:19.110Z,98810.53
2023-05-08T08:58:59.810Z,98813.91
2023-05-08T09:01:39.691Z,98809.97
2023-05-08T09:04:12.433Z,98814.06
2023-05-08T09:06:45.878Z,98820.88
2023-05-08T09:09:46.023Z,98813.84
2023-05-08T09:12:17.883Z,98813.84
2023-05-08T09:14:51.784Z,98801.94
2023-05-08T09:17:23.932Z,98822.44
2023-05-08T09:19:57.278Z,98810.69
2023-05-08T09:22:31.408Z,98813.47
2023-05-08T09:25:04.446Z,98809.66
2023-05-08T09:27:36.793Z,98817.94
2023-05-08T09:30:12.927Z,98815.06
2023-05-08T09:32:47.401Z,98820.03
2023-05-08T09:35:20.262Z,98817.94
2023-05-08T09:37:52.156Z,98815.00
2023-05-08T09:40:25.356Z,98819.34
2023-05-08T09:42:59.928Z,98818.97
2023-05-08T09:45:33.277Z,98828.13
2023-05-08T09:48:06.997Z,98818.31
2023-05-08T09:50:39.746Z,98815.91
2023-05-08T09:53:13.904Z,98819.19
2023-05-08T09:55:48.966Z,98832.22
2023-05-08T09:58:23.417Z,98827.66
2023-05-08T10:00:55.481Z,98833.25
2023-05-08T10:03:48.030Z,98835.78
2023-05-08T10:06:20.215Z,98839.03
2023-05-08T10:09:15.430Z,98834.72
2023-05-08T10:11:54.515Z,98834.16
2023-05-08T10:14:27.101Z,98833.56
2023-05-08T10:17:04.862Z,98836.53
2023-05-08T10:19:42.107Z,98834.31
2023-05-08T10:22:16.001Z,98837.84
2023-05-08T10:24:54.380Z,98841.44
2023-05-08T10:27:48.540Z,98831.56
2023-05-08T10:30:25.516Z,98833.44
2023-05-08T10:32:59.931Z,98827.38
2023-05-08T10:35:32.704Z,98820.59
2023-05-08T10:38:05.340Z,98821.88
2023-05-08T10:40:38.598Z,98814.78
2023-05-08T10:43:12.463Z,98813.13
2023-05-08T10:45:45.278Z,98810.22
2023-05-08T10:48:25.967Z,98817.03
2023-05-08T10:51:01.512Z,98810.53
2023-05-08T10:53:49.054Z,98806.78
2023-05-08T10:56:29.723Z,98805.94
2023-05-08T10:59:01.737Z,98797.25
2023-05-08T11:01:34.639Z,98796.41
2023-05-08T11:04:22.130Z,98787.66
2023-05-08T11:06:54.730Z,98787.25
2023-05-08T11:09:45.650Z,98791.31
2023-05-08T11:12:27.324Z,98788.22
2023-05-08T11:15:05.088Z,98784.09
2023-05-08T11:17:39.573Z,98784.19
2023-05-08T11:20:11.917Z,98778.22
2023-05-08T11:22:48.522Z,98772.81
2023-05-08T11:25:44.200Z,98772.44
2023-05-08T11:28:17.433Z,98761.41
2023-05-08T11:30:55.972Z,98760.22
2023-05-08T11:33:34.092Z,98769.47
2023-05-08T11:36:19.137Z,98762.22
2023-05-08T11:39:16.058Z,98764.91
2023-05-08T11:41:47.966Z,98769.09
2023-05-08T11:44:21.357Z,98762.50
2023-05-08T11:46:55.910Z,98755.66
2023-05-08T11:49:30.247Z,98758.97
2023-05-08T11:52:04.344Z,98745.00
2023-05-08T11:54:37.070Z,98761.53
2023-05-08T11:57:08.954Z,98749.75
2023-05-08T11:59:43.781Z,98746.13
2023-05-08T12:02:16.108Z,98751.50
2023-05-08T12:04:48.771Z,98742.84
2023-05-08T12:07:21.837Z,98754.38
2023-05-08T12:09:54.367Z,98749.47
2023-05-08T12:12:40.139Z,98748.47
2023-05-08T12:15:15.352Z,98752.97
2023-05-08T12:17:47.404Z,98745.63
2023-05-08T12:20:20.350Z,98747.34
2023-05-08T12:22:53.441Z,98746.78
2023-05-08T12:25:26.383Z,98745.09
2023-05-08T12:27:59.952Z,98746.13
2023-05-08T12:30:32.595Z,98750.81
2023-05-08T12:33:05.786Z,98749.69
2023-05-08T12:35:39.573Z,98753.16
2023-05-08T12:38:12.057Z,98752.72
2023-05-08T12:40:49.393Z,98754.84
2023-05-08T12:43:21.920Z,98760.78
2023-05-08T12:45:54.432Z,98753.50
2023-05-08T12:48:28.026Z,98743.84
2023-05-08T12:51:04.182Z,98742.09
2023-05-08T12:53:37.914Z,98749.16
2023-05-08T12:56:10.443Z,98737.41
2023-05-08T12:58:42.724Z,98748.13
2023-05-08T13:01:16.370Z,98745.03
2023-05-08T13:04:01.529Z,98743.28
2023-05-08T13:06:35.873Z,98749.09
2023-05-08T13:09:07.936Z,98737.22
2023-05-08T13:11:40.315Z,98739.75
2023-05-08T13:14:13.227Z,98740.25
2023-05-08T13:16:48.932Z,98740.75
2023-05-08T13:19:20.883Z,98744.53
2023-05-08T13:21:53.488Z,98736.97
2023-05-08T13:24:25.807Z,98740.88
2023-05-08T13:26:58.676Z,98731.19
2023-05-08T13:29:30.691Z,98730.66
2023-05-08T13:32:03.339Z,98724.97
2023-05-08T13:34:37.736Z,98723.66
2023-05-08T13:37:14.276Z,98721.28
2023-05-08T13:39:46.181Z,98716.50
2023-05-08T13:42:18.820Z,98711.66
2023-05-08T13:44:51.120Z,98710.88
2023-05-08T13:47:23.725Z,98704.50
2023-05-08T13:49:55.742Z,98702.50
2023-05-08T13:52:30.848Z,98698.59
2023-05-08T13:55:03.101Z,98711.66
2023-05-08T13:57:35.882Z,98708.97
2023-05-08T14:00:09.389Z,98716.50
2023-05-08T14:02:41.693Z,98708.06
2023-05-08T14:05:14.227Z,98708.72
2023-05-08T14:07:47.101Z,98700.09
2023-05-08T14:10:19.125Z,98706.44
2023-05-08T14:12:51.965Z,98714.41
2023-05-08T14:15:27.081Z,98706.88
2023-05-08T14:18:07.906Z,98719.81
2023-05-08T14:20:39.837Z,98717.50
2023-05-08T14:23:12.348Z,98714.31
2023-05-08T14:25:44.250Z,98711.53
2023-05-08T14:28:16.772Z,98711.31
2023-05-08T14:30:48.636Z,98710.63
2023-05-08T14:33:21.234Z,98717.03
2023-05-08T14:35:53.196Z,98716.03
2023-05-08T14:38:26.128Z,98716.53
2023-05-08T14:40:58.394Z,98714.13
2023-05-08T14:43:31.208Z,98716.91
2023-05-08T14:46:03.527Z,98725.69
2023-05-08T14:48:36.316Z,98719.53
2023-05-08T14:51:08.515Z,98727.97
2023-05-08T14:53:41.550Z,98724.78
2023-05-08T14:56:14.669Z,98734.09
2023-05-08T14:58:47.688Z,98736.31
2023-05-08T15:01:20.173Z,98732.91
2023-05-08T15:03:53.736Z,98737.06
2023-05-08T15:06:27.229Z,98736.75
2023-05-08T15:09:00.007Z,98740.88
2023-05-08T15:11:33.073Z,98747.16
2023-05-08T15:14:06.552Z,98754.03
2023-05-08T15:16:38.616Z,98752.53
2023-05-08T15:19:11.385Z,98753.88
2023-05-08T15:21:43.300Z,98758.66
2023-05-08T15:24:16.454Z,98767.16
2023-05-08T15:26:48.362Z,98756.31
2023-05-08T15:29:21.124Z,98757.00
2023-05-08T15:31:53.166Z,98759.34
2023-05-08T15:34:29.108Z,98764.72
2023-05-08T15:37:04.631Z,98753.59
2023-05-08T15:39:37.857Z,98758.72
2023-05-08T15:42:09.945Z,98756.59
2023-05-08T15:44:54.616Z,98758.25
2023-05-08T15:47:27.495Z,98761.97
2023-05-08T15:50:00.668Z,98762.81
2023-05-08T15:52:33.013Z,98766.13
2023-05-08T15:55:06.302Z,98754.41
2023-05-08T15:57:38.628Z,98769.84
2023-05-08T16:00:12.226Z,98761.09
2023-05-08T16:02:44.180Z,98768.34
2023-05-08T16:05:17.223Z,98771.47
2023-05-08T16:07:51.576Z,98778.75
2023-05-08T16:10:24.718Z,98778.88
2023-05-08T16:12:56.661Z,98785.59
2023-05-08T16:15:29.411Z,98782.50
2023-05-08T16:18:02.078Z,98786.72
2023-05-08T16:20:35.916Z,98781.63
2023-05-08T16:23:08.861Z,98787.69
2023-05-08T16:25:41.582Z,98787.97
2023-05-08T16:28:13.897Z,98794.53
2023-05-08T16:30:46.656Z,98792.09
2023-05-08T16:33:18.517Z,98795.50
2023-05-08T16:35:51.299Z,98792.72
2023-05-08T16:38:23.243Z,98796.47
2023-05-08T16:41:06.588Z,98795.84
2023-05-08T16:43:38.881Z,98797.84
2023-05-08T16:46:11.782Z,98788.03
2023-05-08T16:48:43.756Z,98790.28
2023-05-08T16:51:17.038Z,98789.47
2023-05-08T16:53:48.902Z,98795.94
2023-05-08T16:56:22.835Z,98787.00
2023-05-08T16:58:54.820Z,98784.88
2023-05-08T17:01:27.744Z,98778.09
2023-05-08T17:04:00.311Z,98775.63
2023-05-08T17:06:33.479Z,98774.22
2023-05-08T17:09:05.756Z,98779.09
2023-05-08T17:11:38.507Z,98775.84
2023-05-08T17:14:10.410Z,98770.34
2023-05-08T17:16:43.196Z,98776.22
2023-05-08T17:19:15.105Z,98774.03
2023-05-08T17:21:47.870Z,98769.72
2023-05-08T17:24:19.773Z,98775.59
2023-05-08T17:26:52.528Z,98776.34
2023-05-08T17:29:24.657Z,98779.19
2023-05-08T17:31:57.423Z,98773.66
2023-05-08T17:34:29.842Z,98769.63
2023-05-08T17:37:02.649Z,98769.56
2023-05-08T17:39:34.874Z,98770.91
2023-05-08T17:42:08.134Z,98773.47
2023-05-08T17:44:40.000Z,98776.81
2023-05-08T17:47:15.234Z,98781.91
2023-05-08T17:49:47.955Z,98777.34
2023-05-08T17:52:20.283Z,98770.91
2023-05-08T17:54:52.585Z,98780.16
2023-05-08T17:57:48.135Z,98775.22
2023-05-08T18:00:20.145Z,98784.25
2023-05-08T18:02:54.019Z,98792.13
2023-05-08T18:05:26.051Z,98788.47
2023-05-08T18:07:58.534Z,98792.34
2023-05-08T18:10:31.370Z,98789.53
2023-05-08T18:13:05.086Z,98794.66
2023-05-08T18:15:40.727Z,98791.53
2023-05-08T18:18:13.104Z,98790.31
2023-05-08T18:20:45.974Z,98782.03
2023-05-08T18:23:17.938Z,98781.09
2023-05-08T18:25:51.514Z,98782.00
2023-05-08T18:28:24.032Z,98783.06
2023-05-08T18:30:57.027Z,98797.38
2023-05-08T18:33:29.252Z,98797.19
2023-05-08T18:36:02.017Z,98800.16
2023-05-08T18:38:34.559Z,98789.66
2023-05-08T18:41:07.680Z,98789.78
2023-05-08T18:43:39.705Z,98798.56
2023-05-08T18:46:14.486Z,98793.91
2023-05-08T18:48:46.710Z,98805.75
2023-05-08T18:51:19.702Z,98807.72
2023-05-08T18:53:52.416Z,98806.91
2023-05-08T18:56:24.335Z,98812.19
2023-05-08T18:58:57.360Z,98809.13
2023-05-08T19:01:29.963Z,98811.84
2023-05-08T19:04:04.159Z,98802.00
2023-05-08T19:06:37.167Z,98803.53
2023-05-08T19:09:09.169Z,98808.94
2023-05-08T19:12:03.734Z,98797.63
2023-05-08T19:14:35.615Z,98814.94
2023-05-08T19:17:08.812Z,98802.88
2023-05-08T19:19:41.775Z,98808.28
2023-05-08T19:22:14.567Z,98805.63
2023-05-08T19:24:46.451Z,98809.75
2023-05-08T19:27:19.594Z,98806.41
2023-05-08T19:29:51.519Z,98806.34
2023-05-08T19:32:25.704Z,98811.69
2023-05-08T19:34:58.017Z,98812.50
2023-05-08T19:37:30.860Z,98816.41
2023-05-08T19:40:03.848Z,98811.00
2023-05-08T19:42:35.799Z,98807.06
2023-05-08T19:45:11.471Z,98805.69
2023-05-08T19:47:46.855Z,98814.88
2023-05-08T19:50:19.789Z,98808.28
2023-05-08T19:52:51.766Z,98818.28
2023-05-08T19:55:25.007Z,98816.19
2023-05-08T19:57:57.445Z,98821.69
2023-05-08T20:00:30.273Z,98822.50
2023-05-08T20:03:02.246Z,98825.16
2023-05-08T20:05:35.302Z,98833.75
2023-05-08T20:08:09.297Z,98833.06
2023-05-08T20:10:41.806Z,98837.19
2023-05-08T20:13:14.146Z,98825.28
2023-05-08T20:15:46.175Z,98833.91
2023-05-08T20:18:19.605Z,98828.00
2023-05-08T20:20:51.621Z,98837.28
2023-05-08T20:23:24.538Z,98832.00
2023-05-08T20:25:56.405Z,98833.34
2023-05-08T20:28:29.202Z,98834.66
2023-05-08T20:31:01.829Z,98842.63
2023-05-08T20:36:27.506Z,98833.31
2023-05-08T20:39:00.721Z,98831.25
2023-05-08T20:41:32.978Z,98827.31
2023-05-08T20:44:05.862Z,98832.66
2023-05-08T20:46:37.977Z,98825.47
2023-05-08T20:49:11.102Z,98832.66
2023-05-08T20:51:43.181Z,98829.28
2023-05-08T20:54:15.902Z,98826.53
2023-05-08T20:56:47.826Z,98829.84
2023-05-08T20:59:21.598Z,98828.59
2023-05-08T21:01:53.499Z,98827.31
2023-05-08T21:04:27.875Z,98817.38
2023-05-08T21:06:59.915Z,98820.16
2023-05-08T21:09:32.955Z,98824.13
2023-05-08T21:12:05.508Z,98816.97
2023-05-08T21:14:37.855Z,98820.25
2023-05-08T21:17:10.835Z,98823.53
2023-05-08T21:19:43.480Z,98819.50
2023-05-08T21:22:17.700Z,98814.78
2023-05-08T21:24:49.711Z,98816.66
2023-05-08T21:27:22.812Z,98820.00
2023-05-08T21:29:55.351Z,98817.34
2023-05-08T21:32:27.749Z,98811.31
2023-05-08T21:34:59.996Z,98815.25
2023-05-08T21:37:33.355Z,98814.47
2023-05-08T21:40:06.486Z,98805.84
2023-05-08T21:42:40.050Z,98809.91
2023-05-08T21:45:12.767Z,98805.34
2023-05-08T21:47:45.279Z,98794.84
2023-05-08T21:50:17.718Z,98798.84
2023-05-08T21:52:52.261Z,98786.28
2023-05-08T21:55:24.711Z,98783.72
2023-05-08T21:57:57.429Z,98781.97
2023-05-08T22:00:29.744Z,98781.31
2023-05-08T22:03:02.861Z,98778.03
2023-05-08T22:05:35.279Z,98774.72
2023-05-08T22:11:00.348Z,98772.88
2023-05-08T22:13:33.264Z,98768.22
2023-05-08T22:16:05.798Z,98760.25
2023-05-08T22:18:38.649Z,98759.66
2023-05-08T22:21:10.537Z,98758.38
2023-05-08T22:23:43.245Z,98758.44
2023-05-08T22:26:15.116Z,98754.41
2023-05-08T22:28:47.809Z,98761.09
2023-05-08T22:31:19.796Z,98754.44
2023-05-08T22:33:55.668Z,98744.53
2023-05-08T22:36:29.217Z,98743.31
2023-05-08T22:39:01.954Z,98746.03
2023-05-08T22:41:34.371Z,98748.75
2023-05-08T22:44:07.272Z,98744.63
2023-05-08T22:46:39.683Z,98742.44
2023-05-08T22:49:12.425Z,98729.13
2023-05-08T22:51:44.726Z,98737.47
2023-05-08T22:54:16.612Z,98732.31
2023-05-08T22:56:49.391Z,98725.31
2023-05-08T22:59:21.667Z,98726.44
2023-05-08T23:01:54.028Z,98734.69
2023-05-08T23:04:26.313Z,98730.69
2023-05-08T23:06:58.355Z,98724.44
2023-05-08T23:09:31.632Z,98731.19
2023-05-08T23:12:04.450Z,98729.72
2023-05-08T23:14:37.575Z,98731.19
2023-05-08T23:17:13.840Z,98730.00
2023-05-08T23:19:47.014Z,98735.38
2023-05-08T23:22:18.954Z,98735.34
2023-05-08T23:24:51.794Z,98733.41
2023-05-08T23:27:23.684Z,98717.13
2023-05-08T23:29:56.484Z,98725.69
2023-05-08T23:32:28.361Z,98709.38
2023-05-08T23:35:01.161Z,98710.28
2023-05-08T23:37:33.511Z,98707.81
2023-05-08T23:40:07.013Z,98715.13
2023-05-08T23:42:40.664Z,98701.25
2023-05-08T23:45:12.996Z,98709.78
2023-05-08T23:47:46.797Z,98698.16
2023-05-08T23:50:18.874Z,98706.56
2023-05-08T23:52:51.796Z,98706.38
2023-05-08T23:55:24.123Z,98710.28
2023-05-08T23:57:57.576Z,98697.50
